sensor_id;sensor_type;location;lat;lon;timestamp;pressure;altitude;pressure_sealevel;temperature
69785;BMP280;14177;51.520;6.764;2023-05-29T00:01:43;101878.66;;;16.01
69785;BMP280;14177;51.520;6.764;2023-05-29T00:04:10;101870.09;;;15.96
69785;BMP280;14177;51.520;6.764;2023-05-29T00:06:39;101868.50;;;15.92
69785;BMP280;14177;51.520;6.764;2023-05-29T00:09:07;101881.78;;;15.87
69785;BMP280;14177;51.520;6.764;2023-05-29T00:11:35;101877.66;;;15.81
69785;BMP280;14177;51.520;6.764;2023-05-29T00:14:02;101874.56;;;15.70
69785;BMP280;14177;51.520;6.764;2023-05-29T00:16:29;101873.97;;;15.62
69785;BMP280;14177;51.520;6.764;2023-05-29T00:18:57;101871.56;;;15.56
69785;BMP280;14177;51.520;6.764;2023-05-29T00:21:24;101873.47;;;15.51
69785;BMP280;14177;51.520;6.764;2023-05-29T00:23:52;101873.69;;;15.45
69785;BMP280;14177;51.520;6.764;2023-05-29T00:26:19;101875.59;;;15.40
69785;BMP280;14177;51.520;6.764;2023-05-29T00:28:52;101890.59;;;15.35
69785;BMP280;14177;51.520;6.764;2023-05-29T00:31:19;101898.72;;;15.27
69785;BMP280;14177;51.520;6.764;2023-05-29T00:33:46;101894.53;;;15.22
69785;BMP280;14177;51.520;6.764;2023-05-29T00:36:13;101906.00;;;15.18
69785;BMP280;14177;51.520;6.764;2023-05-29T00:38:40;101906.13;;;15.13
69785;BMP280;14177;51.520;6.764;2023-05-29T00:41:08;101909.03;;;15.04
69785;BMP280;14177;51.520;6.764;2023-05-29T00:43:39;101913.66;;;14.96
69785;BMP280;14177;51.520;6.764;2023-05-29T00:46:06;101923.63;;;14.85
69785;BMP280;14177;51.520;6.764;2023-05-29T00:48:33;101928.97;;;14.81
69785;BMP280;14177;51.520;6.764;2023-05-29T00:51:01;101918.69;;;14.75
69785;BMP280;14177;51.520;6.764;2023-05-29T00:53:29;101922.31;;;14.71
69785;BMP280;14177;51.520;6.764;2023-05-29T00:55:57;101929.34;;;14.69
69785;BMP280;14177;51.520;6.764;2023-05-29T00:58:25;101927.63;;;14.68
69785;BMP280;14177;51.520;6.764;2023-05-29T01:00:52;101941.69;;;14.64
69785;BMP280;14177;51.520;6.764;2023-05-29T01:03:21;101934.03;;;14.58
69785;BMP280;14177;51.520;6.764;2023-05-29T01:05:50;101935.06;;;14.53
69785;BMP280;14177;51.520;6.764;2023-05-29T01:08:19;101931.69;;;14.49
69785;BMP280;14177;51.520;6.764;2023-05-29T01:10:46;101936.22;;;14.44
69785;BMP280;14177;51.520;6.764;2023-05-29T01:13:23;101936.38;;;14.38
69785;BMP280;14177;51.520;6.764;2023-05-29T01:22:05;101946.66;;;14.12
69785;BMP280;14177;51.520;6.764;2023-05-29T01:25:04;101946.00;;;14.04
69785;BMP280;14177;51.520;6.764;2023-05-29T01:27:39;101950.56;;;13.96
69785;BMP280;14177;51.520;6.764;2023-05-29T01:30:10;101951.63;;;13.89
69785;BMP280;14177;51.520;6.764;2023-05-29T01:32:39;101959.66;;;13.83
69785;BMP280;14177;51.520;6.764;2023-05-29T01:35:07;101956.31;;;13.78
69785;BMP280;14177;51.520;6.764;2023-05-29T01:37:35;101962.44;;;13.76
69785;BMP280;14177;51.520;6.764;2023-05-29T01:40:02;101959.00;;;13.74
69785;BMP280;14177;51.520;6.764;2023-05-29T01:42:32;101959.16;;;13.69
69785;BMP280;14177;51.520;6.764;2023-05-29T01:44:59;101963.63;;;13.64
69785;BMP280;14177;51.520;6.764;2023-05-29T01:47:27;101967.22;;;13.60
69785;BMP280;14177;51.520;6.764;2023-05-29T01:49:55;101958.56;;;13.58
69785;BMP280;14177;51.520;6.764;2023-05-29T01:52:22;101960.28;;;13.58
69785;BMP280;14177;51.520;6.764;2023-05-29T01:54:50;101961.31;;;13.52
69785;BMP280;14177;51.520;6.764;2023-05-29T01:57:17;101961.41;;;13.48
69785;BMP280;14177;51.520;6.764;2023-05-29T01:59:45;101965.03;;;13.42
69785;BMP280;14177;51.520;6.764;2023-05-29T02:02:12;101958.16;;;13.40
69785;BMP280;14177;51.520;6.764;2023-05-29T02:04:39;101967.84;;;13.33
69785;BMP280;14177;51.520;6.764;2023-05-29T02:07:06;101968.88;;;13.28
69785;BMP280;14177;51.520;6.764;2023-05-29T02:09:34;101971.56;;;13.24
69785;BMP280;14177;51.520;6.764;2023-05-29T02:12:02;101974.25;;;13.21
69785;BMP280;14177;51.520;6.764;2023-05-29T02:14:29;101976.94;;;13.18
69785;BMP280;14177;51.520;6.764;2023-05-29T02:16:58;101976.19;;;13.13
69785;BMP280;14177;51.520;6.764;2023-05-29T02:19:26;101973.69;;;13.08
69785;BMP280;14177;51.520;6.764;2023-05-29T02:21:53;101976.28;;;13.08
69785;BMP280;14177;51.520;6.764;2023-05-29T02:24:21;101972.91;;;13.05
69785;BMP280;14177;51.520;6.764;2023-05-29T02:26:48;101977.38;;;13.00
69785;BMP280;14177;51.520;6.764;2023-05-29T02:29:17;101967.84;;;12.97
69785;BMP280;14177;51.520;6.764;2023-05-29T02:31:45;101968.78;;;12.95
69785;BMP280;14177;51.520;6.764;2023-05-29T02:34:12;101960.16;;;12.90
69785;BMP280;14177;51.520;6.764;2023-05-29T02:36:41;101979.38;;;12.86
69785;BMP280;14177;51.520;6.764;2023-05-29T02:39:08;101974.25;;;12.81
69785;BMP280;14177;51.520;6.764;2023-05-29T02:41:37;101969.16;;;12.77
69785;BMP280;14177;51.520;6.764;2023-05-29T02:44:05;101980.41;;;12.77
69785;BMP280;14177;51.520;6.764;2023-05-29T02:46:32;101978.00;;;12.70
69785;BMP280;14177;51.520;6.764;2023-05-29T02:49:00;101978.94;;;12.66
69785;BMP280;14177;51.520;6.764;2023-05-29T02:51:27;101992.88;;;12.65
69785;BMP280;14177;51.520;6.764;2023-05-29T02:53:54;101996.41;;;12.61
69785;BMP280;14177;51.520;6.764;2023-05-29T02:56:22;101994.69;;;12.60
69785;BMP280;14177;51.520;6.764;2023-05-29T02:58:50;101995.59;;;12.59
69785;BMP280;14177;51.520;6.764;2023-05-29T03:01:18;101991.31;;;12.56
69785;BMP280;14177;51.520;6.764;2023-05-29T03:03:47;102000.88;;;12.56
69785;BMP280;14177;51.520;6.764;2023-05-29T03:06:15;102002.69;;;12.52
69785;BMP280;14177;51.520;6.764;2023-05-29T03:08:44;101994.94;;;12.49
69785;BMP280;14177;51.520;6.764;2023-05-29T03:11:12;101994.22;;;12.41
69785;BMP280;14177;51.520;6.764;2023-05-29T03:13:42;101997.78;;;12.37
69785;BMP280;14177;51.520;6.764;2023-05-29T03:16:10;101996.94;;;12.35
69785;BMP280;14177;51.520;6.764;2023-05-29T03:18:38;102001.38;;;12.32
69785;BMP280;14177;51.520;6.764;2023-05-29T03:21:07;102002.25;;;12.29
69785;BMP280;14177;51.520;6.764;2023-05-29T03:23:34;102011.97;;;12.23
69785;BMP280;14177;51.520;6.764;2023-05-29T03:26:02;101996.38;;;12.20
69785;BMP280;14177;51.520;6.764;2023-05-29T03:28:33;101985.19;;;12.15
69785;BMP280;14177;51.520;6.764;2023-05-29T03:31:02;101999.97;;;12.13
69785;BMP280;14177;51.520;6.764;2023-05-29T03:33:29;101996.53;;;12.11
69785;BMP280;14177;51.520;6.764;2023-05-29T03:36:04;101994.84;;;12.08
69785;BMP280;14177;51.520;6.764;2023-05-29T03:38:32;101996.66;;;12.05
69785;BMP280;14177;51.520;6.764;2023-05-29T03:40:59;101994.94;;;12.04
69785;BMP280;14177;51.520;6.764;2023-05-29T03:43:27;101996.75;;;12.01
69785;BMP280;14177;51.520;6.764;2023-05-29T03:45:54;101995.03;;;11.98
69785;BMP280;14177;51.520;6.764;2023-05-29T03:48:21;102007.28;;;11.95
69785;BMP280;14177;51.520;6.764;2023-05-29T03:50:49;102015.97;;;11.92
69785;BMP280;14177;51.520;6.764;2023-05-29T03:53:23;102014.31;;;11.88
69785;BMP280;14177;51.520;6.764;2023-05-29T03:55:51;102011.72;;;11.88
69785;BMP280;14177;51.520;6.764;2023-05-29T03:58:18;102020.41;;;11.87
69785;BMP280;14177;51.520;6.764;2023-05-29T04:00:46;102020.44;;;11.86
69785;BMP280;14177;51.520;6.764;2023-05-29T04:03:15;102020.50;;;11.83
69785;BMP280;14177;51.520;6.764;2023-05-29T04:05:45;102017.84;;;11.84
69785;BMP280;14177;51.520;6.764;2023-05-29T04:08:13;102026.56;;;11.83
69785;BMP280;14177;51.520;6.764;2023-05-29T04:10:42;102024.78;;;11.85
69785;BMP280;14177;51.520;6.764;2023-05-29T04:13:10;102028.28;;;11.84
69785;BMP280;14177;51.520;6.764;2023-05-29T04:15:38;102028.28;;;11.84
69785;BMP280;14177;51.520;6.764;2023-05-29T04:18:05;102019.56;;;11.85
69785;BMP280;14177;51.520;6.764;2023-05-29T04:20:33;102024.69;;;11.91
69785;BMP280;14177;51.520;6.764;2023-05-29T04:23:00;102020.31;;;11.93
69785;BMP280;14177;51.520;6.764;2023-05-29T04:25:27;102026.41;;;11.94
69785;BMP280;14177;51.520;6.764;2023-05-29T04:27:54;102029.81;;;11.96
69785;BMP280;14177;51.520;6.764;2023-05-29T04:30:22;102033.31;;;11.93
69785;BMP280;14177;51.520;6.764;2023-05-29T04:32:49;102038.53;;;11.93
69785;BMP280;14177;51.520;6.764;2023-05-29T04:35:16;102041.22;;;11.89
69785;BMP280;14177;51.520;6.764;2023-05-29T04:37:52;102040.34;;;11.90
69785;BMP280;14177;51.520;6.764;2023-05-29T04:40:21;102042.97;;;11.88
69785;BMP280;14177;51.520;6.764;2023-05-29T04:42:49;102051.59;;;11.90
69785;BMP280;14177;51.520;6.764;2023-05-29T04:45:20;102050.72;;;11.91
69785;BMP280;14177;51.520;6.764;2023-05-29T04:47:51;102049.94;;;11.88
69785;BMP280;14177;51.520;6.764;2023-05-29T04:50:20;102058.53;;;11.93
69785;BMP280;14177;51.520;6.764;2023-05-29T04:52:47;102064.59;;;11.93
69785;BMP280;14177;51.520;6.764;2023-05-29T04:55:15;102064.53;;;11.96
69785;BMP280;14177;51.520;6.764;2023-05-29T04:57:43;102066.19;;;12.00
69785;BMP280;14177;51.520;6.764;2023-05-29T05:00:11;102074.00;;;12.02
69785;BMP280;14177;51.520;6.764;2023-05-29T05:02:43;102072.25;;;12.02
69785;BMP280;14177;51.520;6.764;2023-05-29T05:05:12;102071.34;;;12.03
69785;BMP280;14177;51.520;6.764;2023-05-29T05:07:39;102067.81;;;12.07
69785;BMP280;14177;51.520;6.764;2023-05-29T05:10:07;102066.94;;;12.08
69785;BMP280;14177;51.520;6.764;2023-05-29T05:12:35;102066.88;;;12.09
69785;BMP280;14177;51.520;6.764;2023-05-29T05:15:04;102061.56;;;12.17
69785;BMP280;14177;51.520;6.764;2023-05-29T05:17:34;102068.47;;;12.19
69785;BMP280;14177;51.520;6.764;2023-05-29T05:20:01;102069.25;;;12.24
69785;BMP280;14177;51.520;6.764;2023-05-29T05:22:28;102063.97;;;12.29
69785;BMP280;14177;51.520;6.764;2023-05-29T05:24:55;102065.63;;;12.33
69785;BMP280;14177;51.520;6.764;2023-05-29T05:27:24;102069.06;;;12.35
69785;BMP280;14177;51.520;6.764;2023-05-29T05:29:52;102064.69;;;12.37
69785;BMP280;14177;51.520;6.764;2023-05-29T05:32:19;102066.31;;;12.41
69785;BMP280;14177;51.520;6.764;2023-05-29T05:34:53;102061.94;;;12.43
69785;BMP280;14177;51.520;6.764;2023-05-29T05:37:20;102066.19;;;12.48
69785;BMP280;14177;51.520;6.764;2023-05-29T05:39:50;102066.09;;;12.53
69785;BMP280;14177;51.520;6.764;2023-05-29T05:42:17;102060.75;;;12.60
69785;BMP280;14177;51.520;6.764;2023-05-29T05:44:50;102052.00;;;12.64
69785;BMP280;14177;51.520;6.764;2023-05-29T05:47:18;102055.38;;;12.69
69785;BMP280;14177;51.520;6.764;2023-05-29T05:49:45;102055.22;;;12.75
69785;BMP280;14177;51.520;6.764;2023-05-29T05:52:13;102055.91;;;12.85
69785;BMP280;14177;51.520;6.764;2023-05-29T05:54:40;102055.81;;;12.91
69785;BMP280;14177;51.520;6.764;2023-05-29T05:57:07;102066.09;;;12.98
69785;BMP280;14177;51.520;6.764;2023-05-29T05:59:36;102064.22;;;13.05
69785;BMP280;14177;51.520;6.764;2023-05-29T06:02:04;102068.38;;;13.12
69785;BMP280;14177;51.520;6.764;2023-05-29T06:04:35;102056.88;;;13.22
69785;BMP280;14177;51.520;6.764;2023-05-29T06:07:02;102056.66;;;13.31
69785;BMP280;14177;51.520;6.764;2023-05-29T06:09:29;102066.84;;;13.42
69785;BMP280;14177;51.520;6.764;2023-05-29T06:11:57;102066.66;;;13.50
69785;BMP280;14177;51.520;6.764;2023-05-29T06:14:24;102067.38;;;13.56
69785;BMP280;14177;51.520;6.764;2023-05-29T06:16:52;102072.41;;;13.65
69785;BMP280;14177;51.520;6.764;2023-05-29T06:19:20;102081.88;;;13.69
69785;BMP280;14177;51.520;6.764;2023-05-29T06:21:57;102073.84;;;13.78
69785;BMP280;14177;51.520;6.764;2023-05-29T06:24:26;102083.22;;;13.85
69785;BMP280;14177;51.520;6.764;2023-05-29T06:26:55;102081.28;;;13.93
69785;BMP280;14177;51.520;6.764;2023-05-29T06:29:22;102079.19;;;14.07
69785;BMP280;14177;51.520;6.764;2023-05-29T06:31:50;102080.63;;;14.20
69785;BMP280;14177;51.520;6.764;2023-05-29T06:34:18;102082.19;;;14.27
69785;BMP280;14177;51.520;6.764;2023-05-29T06:36:46;102077.72;;;14.32
69785;BMP280;14177;51.520;6.764;2023-05-29T06:39:14;102076.03;;;14.30
69785;BMP280;14177;51.520;6.764;2023-05-29T06:41:41;102070.72;;;14.33
69785;BMP280;14177;51.520;6.764;2023-05-29T06:44:08;102079.22;;;14.41
69785;BMP280;14177;51.520;6.764;2023-05-29T06:46:35;102071.19;;;14.48
69785;BMP280;14177;51.520;6.764;2023-05-29T06:49:03;102068.13;;;14.63
69785;BMP280;14177;51.520;6.764;2023-05-29T06:51:33;102065.25;;;14.72
69785;BMP280;14177;51.520;6.764;2023-05-29T06:54:30;102066.63;;;14.85
69785;BMP280;14177;51.520;6.764;2023-05-29T06:56:57;102075.97;;;14.93
69785;BMP280;14177;51.520;6.764;2023-05-29T06:59:38;102075.78;;;15.01
69785;BMP280;14177;51.520;6.764;2023-05-29T07:02:06;102081.50;;;15.13
69785;BMP280;14177;51.520;6.764;2023-05-29T07:04:34;102082.09;;;15.23
69785;BMP280;14177;51.520;6.764;2023-05-29T07:07:01;102085.34;;;15.31
69785;BMP280;14177;51.520;6.764;2023-05-29T07:09:28;102081.56;;;15.41
69785;BMP280;14177;51.520;6.764;2023-05-29T07:11:55;102082.09;;;15.52
69785;BMP280;14177;51.520;6.764;2023-05-29T07:14:22;102084.53;;;15.58
69785;BMP280;14177;51.520;6.764;2023-05-29T07:16:50;102083.44;;;15.65
69785;BMP280;14177;51.520;6.764;2023-05-29T07:19:17;102082.28;;;15.73
69785;BMP280;14177;51.520;6.764;2023-05-29T07:21:48;102093.25;;;15.85
69785;BMP280;14177;51.520;6.764;2023-05-29T07:24:18;102092.84;;;15.97
69785;BMP280;14177;51.520;6.764;2023-05-29T07:26:45;102089.22;;;16.01
69785;BMP280;14177;51.520;6.764;2023-05-29T07:29:12;102078.31;;;16.13
69785;BMP280;14177;51.520;6.764;2023-05-29T07:31:41;102085.47;;;16.08
69785;BMP280;14177;51.520;6.764;2023-05-29T07:34:11;102090.00;;;16.03
69785;BMP280;14177;51.520;6.764;2023-05-29T07:37:00;102088.78;;;16.13
69785;BMP280;14177;51.520;6.764;2023-05-29T07:39:34;102086.97;;;16.15
69785;BMP280;14177;51.520;6.764;2023-05-29T07:42:10;102091.91;;;16.24
69785;BMP280;14177;51.520;6.764;2023-05-29T07:44:39;102093.50;;;16.30
69785;BMP280;14177;51.520;6.764;2023-05-29T07:47:09;102096.03;;;16.33
69785;BMP280;14177;51.520;6.764;2023-05-29T07:49:40;102091.84;;;16.52
69785;BMP280;14177;51.520;6.764;2023-05-29T07:52:08;102093.22;;;16.63
69785;BMP280;14177;51.520;6.764;2023-05-29T07:54:35;102099.72;;;16.76
69785;BMP280;14177;51.520;6.764;2023-05-29T07:57:03;102102.59;;;16.93
69785;BMP280;14177;51.520;6.764;2023-05-29T07:59:31;102101.84;;;17.12
69785;BMP280;14177;51.520;6.764;2023-05-29T08:02:00;102096.91;;;17.28
69785;BMP280;14177;51.520;6.764;2023-05-29T08:05:11;102100.69;;;17.44
69785;BMP280;14177;51.520;6.764;2023-05-29T08:07:54;102105.44;;;17.56
69785;BMP280;14177;51.520;6.764;2023-05-29T08:10:30;102105.59;;;17.74
69785;BMP280;14177;51.520;6.764;2023-05-29T08:13:02;102098.91;;;17.87
69785;BMP280;14177;51.520;6.764;2023-05-29T08:16:29;102114.06;;;18.02
69785;BMP280;14177;51.520;6.764;2023-05-29T08:24:03;102115.81;;;18.44
69785;BMP280;14177;51.520;6.764;2023-05-29T08:26:52;102113.16;;;18.44
69785;BMP280;14177;51.520;6.764;2023-05-29T08:29:24;102111.34;;;18.46
69785;BMP280;14177;51.520;6.764;2023-05-29T08:31:56;102115.69;;;18.67
69785;BMP280;14177;51.520;6.764;2023-05-29T08:35:06;102113.03;;;18.87
69785;BMP280;14177;51.520;6.764;2023-05-29T08:38:42;102109.25;;;18.93
69785;BMP280;14177;51.520;6.764;2023-05-29T08:46:14;102123.50;;;19.27
69785;BMP280;14177;51.520;6.764;2023-05-29T08:49:07;102112.69;;;19.33
69785;BMP280;14177;51.520;6.764;2023-05-29T09:00:48;102107.91;;;19.95
69785;BMP280;14177;51.520;6.764;2023-05-29T09:04:02;102123.88;;;19.92
69785;BMP280;14177;51.520;6.764;2023-05-29T09:06:55;102117.25;;;20.02
69785;BMP280;14177;51.520;6.764;2023-05-29T09:14:35;102131.44;;;20.35
69785;BMP280;14177;51.520;6.764;2023-05-29T09:21:08;102130.84;;;20.79
69785;BMP280;14177;51.520;6.764;2023-05-29T09:24:50;102123.72;;;20.81
69785;BMP280;14177;51.520;6.764;2023-05-29T09:28:21;102119.03;;;21.03
69785;BMP280;14177;51.520;6.764;2023-05-29T09:32:20;102126.38;;;21.13
69785;BMP280;14177;51.520;6.764;2023-05-29T09:35:29;102130.50;;;21.34
69785;BMP280;14177;51.520;6.764;2023-05-29T09:38:51;102130.75;;;21.62
69785;BMP280;14177;51.520;6.764;2023-05-29T09:41:57;102127.06;;;21.80
69785;BMP280;14177;51.520;6.764;2023-05-29T09:45:17;102118.94;;;21.99
69785;BMP280;14177;51.520;6.764;2023-05-29T09:48:29;102122.03;;;22.36
69785;BMP280;14177;51.520;6.764;2023-05-29T09:51:50;102117.38;;;22.55
69785;BMP280;14177;51.520;6.764;2023-05-29T09:56:23;102121.91;;;22.53
69785;BMP280;14177;51.520;6.764;2023-05-29T10:00:12;102118.06;;;22.72
69785;BMP280;14177;51.520;6.764;2023-05-29T10:02:52;102121.94;;;22.95
69785;BMP280;14177;51.520;6.764;2023-05-29T10:05:24;102117.78;;;23.05
69785;BMP280;14177;51.520;6.764;2023-05-29T10:08:51;102120.94;;;23.11
69785;BMP280;14177;51.520;6.764;2023-05-29T10:12:20;102117.91;;;23.31
69785;BMP280;14177;51.520;6.764;2023-05-29T10:15:50;102111.81;;;23.57
69785;BMP280;14177;51.520;6.764;2023-05-29T10:18:46;102106.09;;;23.63
69785;BMP280;14177;51.520;6.764;2023-05-29T10:21:22;102109.63;;;23.76
69785;BMP280;14177;51.520;6.764;2023-05-29T10:24:15;102106.03;;;23.77
69785;BMP280;14177;51.520;6.764;2023-05-29T10:27:16;102093.66;;;24.04
69785;BMP280;14177;51.520;6.764;2023-05-29T10:33:36;102098.50;;;24.36
69785;BMP280;14177;51.520;6.764;2023-05-29T10:36:36;102088.69;;;24.63
69785;BMP280;14177;51.520;6.764;2023-05-29T10:40:45;102098.47;;;24.75
69785;BMP280;14177;51.520;6.764;2023-05-29T10:42:57;102087.75;;;24.64
69785;BMP280;14177;51.520;6.764;2023-05-29T10:51:24;102083.38;;;24.75
69785;BMP280;14177;51.520;6.764;2023-05-29T10:53:49;102074.88;;;24.70
69785;BMP280;14177;51.520;6.764;2023-05-29T10:56:36;102085.50;;;24.83
69785;BMP280;14177;51.520;6.764;2023-05-29T10:59:25;102082.41;;;25.01
69785;BMP280;14177;51.520;6.764;2023-05-29T11:02:04;102073.25;;;25.05
69785;BMP280;14177;51.520;6.764;2023-05-29T11:04:34;102086.13;;;25.11
69785;BMP280;14177;51.520;6.764;2023-05-29T11:07:01;102078.03;;;25.13
69785;BMP280;14177;51.520;6.764;2023-05-29T11:09:40;102080.50;;;25.16
69785;BMP280;14177;51.520;6.764;2023-05-29T11:12:24;102082.06;;;25.06
69785;BMP280;14177;51.520;6.764;2023-05-29T11:15:08;102081.63;;;25.12
69785;BMP280;14177;51.520;6.764;2023-05-29T11:20:16;102074.03;;;25.43
69785;BMP280;14177;51.520;6.764;2023-05-29T11:23:02;102080.69;;;25.25
69785;BMP280;14177;51.520;6.764;2023-05-29T11:25:35;102076.13;;;25.15
69785;BMP280;14177;51.520;6.764;2023-05-29T11:28:08;102068.03;;;25.29
69785;BMP280;14177;51.520;6.764;2023-05-29T11:30:46;102072.91;;;25.10
69785;BMP280;14177;51.520;6.764;2023-05-29T11:33:24;102069.94;;;25.02
69785;BMP280;14177;51.520;6.764;2023-05-29T11:36:00;102075.50;;;24.99
69785;BMP280;14177;51.520;6.764;2023-05-29T11:38:28;102073.47;;;25.02
69785;BMP280;14177;51.520;6.764;2023-05-29T11:40:56;102076.88;;;25.17
69785;BMP280;14177;51.520;6.764;2023-05-29T11:43:24;102062.28;;;25.35
69785;BMP280;14177;51.520;6.764;2023-05-29T11:45:51;102067.09;;;25.53
69785;BMP280;14177;51.520;6.764;2023-05-29T11:48:19;102065.84;;;25.70
69785;BMP280;14177;51.520;6.764;2023-05-29T11:50:47;102057.28;;;25.90
69785;BMP280;14177;51.520;6.764;2023-05-29T11:53:14;102059.91;;;26.13
69785;BMP280;14177;51.520;6.764;2023-05-29T11:55:41;102057.63;;;26.19
69785;BMP280;14177;51.520;6.764;2023-05-29T11:58:08;102057.13;;;26.14
69785;BMP280;14177;51.520;6.764;2023-05-29T12:00:37;102057.63;;;26.19
69785;BMP280;14177;51.520;6.764;2023-05-29T12:03:06;102054.97;;;26.19
69785;BMP280;14177;51.520;6.764;2023-05-29T12:05:49;102057.63;;;26.19
69785;BMP280;14177;51.520;6.764;2023-05-29T12:08:23;102060.41;;;26.18
69785;BMP280;14177;51.520;6.764;2023-05-29T12:10:52;102059.06;;;26.23
69785;BMP280;14177;51.520;6.764;2023-05-29T12:13:21;102058.84;;;26.26
69785;BMP280;14177;51.520;6.764;2023-05-29T12:15:53;102057.41;;;26.33
69785;BMP280;14177;51.520;6.764;2023-05-29T12:18:21;102053.22;;;26.42
69785;BMP280;14177;51.520;6.764;2023-05-29T12:20:49;102058.22;;;26.57
69785;BMP280;14177;51.520;6.764;2023-05-29T12:23:18;102056.91;;;26.52
69785;BMP280;14177;51.520;6.764;2023-05-29T12:25:51;102065.00;;;26.50
69785;BMP280;14177;51.520;6.764;2023-05-29T12:28:21;102055.47;;;26.35
69785;BMP280;14177;51.520;6.764;2023-05-29T12:30:49;102054.41;;;26.38
69785;BMP280;14177;51.520;6.764;2023-05-29T12:33:32;102045.22;;;26.42
69785;BMP280;14177;51.520;6.764;2023-05-29T12:36:07;102047.25;;;26.38
69785;BMP280;14177;51.520;6.764;2023-05-29T12:38:53;102057.22;;;26.47
69785;BMP280;14177;51.520;6.764;2023-05-29T12:42:43;102052.41;;;26.63
69785;BMP280;14177;51.520;6.764;2023-05-29T12:51:42;102044.06;;;26.57
69785;BMP280;14177;51.520;6.764;2023-05-29T12:55:09;102047.56;;;26.57
69785;BMP280;14177;51.520;6.764;2023-05-29T12:58:08;102048.16;;;26.61
69785;BMP280;14177;51.520;6.764;2023-05-29T13:00:42;102052.06;;;26.57
69785;BMP280;14177;51.520;6.764;2023-05-29T13:03:26;102051.66;;;26.50
69785;BMP280;14177;51.520;6.764;2023-05-29T13:06:07;102048.22;;;26.37
69785;BMP280;14177;51.520;6.764;2023-05-29T13:08:56;102059.56;;;26.28
69785;BMP280;14177;51.520;6.764;2023-05-29T13:11:58;102053.69;;;26.01
69785;BMP280;14177;51.520;6.764;2023-05-29T13:15:05;102057.31;;;26.00
69785;BMP280;14177;51.520;6.764;2023-05-29T13:17:35;102064.16;;;25.92
69785;BMP280;14177;51.520;6.764;2023-05-29T13:20:03;102063.38;;;26.02
69785;BMP280;14177;51.520;6.764;2023-05-29T13:22:34;102062.41;;;26.03
69785;BMP280;14177;51.520;6.764;2023-05-29T13:25:01;102058.59;;;26.18
69785;BMP280;14177;51.520;6.764;2023-05-29T13:27:28;102051.50;;;25.96
69785;BMP280;14177;51.520;6.764;2023-05-29T13:29:55;102054.38;;;25.93
69785;BMP280;14177;51.520;6.764;2023-05-29T13:32:23;102056.31;;;25.91
69785;BMP280;14177;51.520;6.764;2023-05-29T13:34:50;102046.50;;;25.91
69785;BMP280;14177;51.520;6.764;2023-05-29T13:37:17;102042.72;;;25.83
69785;BMP280;14177;51.520;6.764;2023-05-29T13:39:44;102051.50;;;25.96
69785;BMP280;14177;51.520;6.764;2023-05-29T13:42:12;102041.34;;;26.00
69785;BMP280;14177;51.520;6.764;2023-05-29T13:44:39;102038.91;;;25.98
69785;BMP280;14177;51.520;6.764;2023-05-29T13:47:07;102039.00;;;25.96
69785;BMP280;14177;51.520;6.764;2023-05-29T13:49:35;102047.59;;;25.89
69785;BMP280;14177;51.520;6.764;2023-05-29T13:52:03;102042.72;;;25.83
69785;BMP280;14177;51.520;6.764;2023-05-29T13:54:31;102044.84;;;25.78
69785;BMP280;14177;51.520;6.764;2023-05-29T13:57:03;102046.41;;;25.93
69785;BMP280;14177;51.520;6.764;2023-05-29T13:59:34;102043.38;;;25.74
69785;BMP280;14177;51.520;6.764;2023-05-29T14:02:02;102034.94;;;25.80
69785;BMP280;14177;51.520;6.764;2023-05-29T14:04:30;102047.13;;;25.95
69785;BMP280;14177;51.520;6.764;2023-05-29T14:06:57;102038.78;;;25.99
69785;BMP280;14177;51.520;6.764;2023-05-29T14:09:25;102038.22;;;26.06
69785;BMP280;14177;51.520;6.764;2023-05-29T14:11:58;102039.78;;;26.09
69785;BMP280;14177;51.520;6.764;2023-05-29T14:14:26;102038.00;;;26.09
69785;BMP280;14177;51.520;6.764;2023-05-29T14:16:54;102037.25;;;26.07
69785;BMP280;14177;51.520;6.764;2023-05-29T14:19:22;102039.31;;;26.15
69785;BMP280;14177;51.520;6.764;2023-05-29T14:21:51;102045.63;;;26.14
69785;BMP280;14177;51.520;6.764;2023-05-29T14:24:18;102046.97;;;26.19
69785;BMP280;14177;51.520;6.764;2023-05-29T14:26:45;102039.97;;;26.29
69785;BMP280;14177;51.520;6.764;2023-05-29T14:29:14;102043.09;;;26.23
69785;BMP280;14177;51.520;6.764;2023-05-29T14:31:43;102026.28;;;26.23
69785;BMP280;14177;51.520;6.764;2023-05-29T14:34:12;102028.25;;;26.43
69785;BMP280;14177;51.520;6.764;2023-05-29T14:36:40;102031.31;;;26.49
69785;BMP280;14177;51.520;6.764;2023-05-29T14:39:07;102022.50;;;26.49
69785;BMP280;14177;51.520;6.764;2023-05-29T14:41:35;102025.88;;;26.51
69785;BMP280;14177;51.520;6.764;2023-05-29T14:44:03;102022.13;;;26.64
69785;BMP280;14177;51.520;6.764;2023-05-29T14:46:30;102025.75;;;26.63
69785;BMP280;14177;51.520;6.764;2023-05-29T14:49:01;102020.91;;;26.57
69785;BMP280;14177;51.520;6.764;2023-05-29T14:51:28;102021.88;;;26.45
69785;BMP280;14177;51.520;6.764;2023-05-29T14:53:55;102013.09;;;26.21
69785;BMP280;14177;51.520;6.764;2023-05-29T14:56:23;102027.53;;;25.96
69785;BMP280;14177;51.520;6.764;2023-05-29T14:58:50;102035.16;;;26.00
69785;BMP280;14177;51.520;6.764;2023-05-29T15:01:17;102031.16;;;25.95
69785;BMP280;14177;51.520;6.764;2023-05-29T15:03:45;102032.00;;;25.95
69785;BMP280;14177;51.520;6.764;2023-05-29T15:06:12;102030.66;;;25.90
69785;BMP280;14177;51.520;6.764;2023-05-29T15:08:40;102026.91;;;25.92
69785;BMP280;14177;51.520;6.764;2023-05-29T15:11:10;102016.69;;;26.09
69785;BMP280;14177;51.520;6.764;2023-05-29T15:13:40;102020.81;;;26.13
69785;BMP280;14177;51.520;6.764;2023-05-29T15:16:07;102015.72;;;26.10
69785;BMP280;14177;51.520;6.764;2023-05-29T15:18:35;102014.13;;;26.08
69785;BMP280;14177;51.520;6.764;2023-05-29T15:21:03;102013.69;;;26.25
69785;BMP280;14177;51.520;6.764;2023-05-29T15:23:31;102018.56;;;26.31
69785;BMP280;14177;51.520;6.764;2023-05-29T15:26:01;102014.06;;;26.31
69785;BMP280;14177;51.520;6.764;2023-05-29T15:28:30;102022.28;;;26.28
69785;BMP280;14177;51.520;6.764;2023-05-29T15:30:58;102008.47;;;26.23